createdAt,value
2017-09-07T00:00:42.734Z,0
2017-09-07T00:01:51.579Z,0
2017-09-07T00:03:00.419Z,0
2017-09-07T00:04:09.261Z,0
2017-09-07T00:05:18.103Z,0
2017-09-07T00:06:27.096Z,0
2017-09-07T00:07:35.936Z,0
2017-09-07T00:08:44.778Z,0
2017-09-07T00:09:53.620Z,0
2017-09-07T00:11:02.463Z,0
2017-09-07T00:12:11.455Z,0
2017-09-07T00:13:20.298Z,0
2017-09-07T00:14:29.141Z,0
2017-09-07T00:15:37.983Z,0
2017-09-07T00:16:46.826Z,0
2017-09-07T00:17:55.872Z,0
2017-09-07T00:19:04.717Z,0
2017-09-07T00:20:13.561Z,0
2017-09-07T00:21:22.402Z,0
2017-09-07T00:22:31.247Z,0
2017-09-07T00:23:40.142Z,0
2017-09-07T00:24:48.986Z,0
2017-09-07T00:25:57.832Z,0
2017-09-07T00:27:06.676Z,0
2017-09-07T00:28:15.520Z,0
2017-09-07T00:29:24.668Z,0
2017-09-07T00:30:33.512Z,0
2017-09-07T00:31:42.357Z,0
2017-09-07T00:32:51.208Z,0
2017-09-07T00:34:00.045Z,0
2017-09-07T00:35:09.089Z,0
2017-09-07T00:36:17.934Z,0
2017-09-07T00:37:27.109Z,0
2017-09-07T00:38:35.954Z,0
2017-09-07T00:39:44.797Z,0
2017-09-07T00:40:53.791Z,0
2017-09-07T00:42:02.637Z,0
2017-09-07T00:43:11.480Z,0
2017-09-07T00:44:20.323Z,0
2017-09-07T00:45:29.168Z,0
2017-09-07T00:46:38.164Z,0
2017-09-07T00:47:47.009Z,0
2017-09-07T00:48:55.854Z,0
2017-09-07T00:50:04.697Z,0
2017-09-07T00:51:13.543Z,0
2017-09-07T00:52:22.688Z,0
2017-09-07T00:53:31.533Z,0
2017-09-07T00:54:40.377Z,0
2017-09-07T00:55:49.220Z,0
2017-09-07T00:56:58.062Z,0
2017-09-07T00:58:07.540Z,0
2017-09-07T00:59:16.382Z,0
2017-09-07T01:00:25.224Z,0
2017-09-07T01:01:34.067Z,0
2017-09-07T01:02:42.909Z,0
2017-09-07T01:03:52.006Z,0
2017-09-07T01:05:00.846Z,0
2017-09-07T01:06:09.690Z,0
2017-09-07T01:07:18.531Z,0
2017-09-07T01:08:27.374Z,0
2017-09-07T01:09:36.367Z,0
2017-09-07T01:10:45.209Z,0
2017-09-07T01:11:54.052Z,0
2017-09-07T01:13:02.895Z,0
2017-09-07T01:14:12.402Z,0
2017-09-07T01:15:21.342Z,0
2017-09-07T01:16:30.184Z,0
2017-09-07T01:17:39.027Z,0
2017-09-07T01:18:47.869Z,0
2017-09-07T01:19:56.710Z,0
2017-09-07T01:21:05.755Z,0
2017-09-07T01:22:14.598Z,0
2017-09-07T01:23:23.439Z,0
2017-09-07T01:24:32.284Z,0
2017-09-07T01:25:41.454Z,0
2017-09-07T01:26:50.347Z,0
2017-09-07T01:27:59.192Z,0
2017-09-07T01:29:08.033Z,0
2017-09-07T01:30:16.874Z,0
2017-09-07T01:31:25.720Z,0
2017-09-07T01:32:34.707Z,0
2017-09-07T01:33:43.549Z,0
2017-09-07T01:34:52.392Z,0
2017-09-07T01:36:01.230Z,0
2017-09-07T01:37:10.076Z,0
2017-09-07T01:38:19.066Z,0
2017-09-07T01:39:28.237Z,0
2017-09-07T01:40:37.084Z,0
2017-09-07T01:41:45.924Z,0
2017-09-07T01:42:54.768Z,0
2017-09-07T01:44:03.608Z,0
2017-09-07T01:45:12.450Z,0
2017-09-07T01:46:21.292Z,0
2017-09-07T01:47:30.132Z,0
2017-09-07T01:48:38.973Z,0
2017-09-07T01:49:48.299Z,0
2017-09-07T01:50:57.140Z,0
2017-09-07T01:52:05.986Z,0
2017-09-07T01:53:14.828Z,0
2017-09-07T01:54:23.669Z,0
2017-09-07T01:55:32.612Z,0
2017-09-07T01:56:41.461Z,0
2017-09-07T01:57:50.300Z,0
2017-09-07T01:58:59.140Z,0
2017-09-07T02:00:07.981Z,0
2017-09-07T02:01:16.872Z,0
2017-09-07T02:02:25.715Z,0
2017-09-07T02:03:34.556Z,0
2017-09-07T02:04:43.400Z,0
2017-09-07T02:05:52.243Z,0
2017-09-07T02:07:01.466Z,0
2017-09-07T02:08:10.308Z,0
2017-09-07T02:09:19.150Z,0
2017-09-07T02:10:27.994Z,0
2017-09-07T02:11:36.834Z,0
2017-09-07T02:12:45.826Z,0
2017-09-07T02:13:54.668Z,0
2017-09-07T02:15:03.511Z,0
2017-09-07T02:16:12.353Z,0
2017-09-07T02:17:21.195Z,0
2017-09-07T02:18:30.138Z,0
2017-09-07T02:19:39.030Z,0
2017-09-07T02:20:48.212Z,0
2017-09-07T02:21:57.393Z,0
2017-09-07T02:23:06.237Z,0
2017-09-07T02:24:15.327Z,0
2017-09-07T02:25:24.170Z,0
2017-09-07T02:26:33.014Z,0
2017-09-07T02:27:41.858Z,0
2017-09-07T02:28:50.701Z,0
2017-09-07T02:29:59.593Z,0
2017-09-07T02:31:08.436Z,0
2017-09-07T02:32:17.276Z,0
2017-09-07T02:33:26.459Z,0
2017-09-07T02:34:35.301Z,0
2017-09-07T02:35:44.443Z,0
2017-09-07T02:36:53.284Z,0
2017-09-07T02:38:02.125Z,0
2017-09-07T02:39:10.966Z,0
2017-09-07T02:40:19.810Z,0
2017-09-07T02:41:28.752Z,0
2017-09-07T02:42:37.593Z,0
2017-09-07T02:43:46.435Z,0
2017-09-07T02:44:55.277Z,0
2017-09-07T02:46:04.121Z,0
2017-09-07T02:47:13.114Z,0
2017-09-07T02:48:21.960Z,0
2017-09-07T02:49:30.803Z,0
2017-09-07T02:50:39.648Z,0
2017-09-07T02:51:48.493Z,0
2017-09-07T02:52:57.340Z,0
2017-09-07T02:54:06.518Z,0
2017-09-07T02:55:15.362Z,0
2017-09-07T02:56:24.205Z,0
2017-09-07T02:57:33.099Z,0
2017-09-07T02:58:41.993Z,0
2017-09-07T02:59:50.836Z,0
2017-09-07T03:00:59.680Z,0
2017-09-07T03:02:08.524Z,0
2017-09-07T03:03:17.367Z,0
2017-09-07T03:04:26.212Z,0
2017-09-07T03:05:35.057Z,0
2017-09-07T03:06:43.903Z,0
2017-09-07T03:07:52.749Z,0
2017-09-07T03:09:01.925Z,0
2017-09-07T03:10:11.068Z,0
2017-09-07T03:11:19.914Z,0
2017-09-07T03:12:28.758Z,0
2017-09-07T03:13:37.608Z,0
2017-09-07T03:14:46.453Z,0
2017-09-07T03:15:55.548Z,0
2017-09-07T03:17:04.391Z,0
2017-09-07T03:18:13.564Z,0
2017-09-07T03:19:22.409Z,0
2017-09-07T03:20:31.255Z,0
2017-09-07T03:21:40.250Z,0
2017-09-07T03:22:49.094Z,0
2017-09-07T03:23:57.939Z,0
2017-09-07T03:25:06.781Z,0
2017-09-07T03:26:15.624Z,0
2017-09-07T03:27:24.767Z,0
2017-09-07T03:28:33.611Z,0
2017-09-07T03:29:42.455Z,0
2017-09-07T03:30:51.305Z,0
2017-09-07T03:32:00.152Z,0
2017-09-07T03:33:09.047Z,0
2017-09-07T03:34:17.894Z,0
2017-09-07T03:35:27.069Z,0
2017-09-07T03:36:35.914Z,0
2017-09-07T03:37:44.759Z,0
2017-09-07T03:38:53.905Z,0
2017-09-07T03:40:02.751Z,0
2017-09-07T03:41:11.594Z,0
2017-09-07T03:42:20.438Z,0
2017-09-07T03:43:29.284Z,0
2017-09-07T03:44:38.281Z,0
2017-09-07T03:45:47.457Z,0
2017-09-07T03:46:56.300Z,0
2017-09-07T03:48:05.145Z,0
2017-09-07T03:49:13.990Z,0
2017-09-07T03:50:22.983Z,0
2017-09-07T03:51:31.828Z,0
2017-09-07T03:52:40.668Z,0
2017-09-07T03:53:49.517Z,0
2017-09-07T03:54:58.360Z,0
2017-09-07T03:56:07.254Z,0
2017-09-07T03:57:16.098Z,0
2017-09-07T03:58:24.941Z,0
2017-09-07T03:59:33.788Z,0
2017-09-07T04:00:42.635Z,0
2017-09-07T04:01:51.729Z,0
2017-09-07T04:03:00.606Z,0
2017-09-07T04:04:09.420Z,0
2017-09-07T04:05:18.263Z,0
2017-09-07T04:06:27.438Z,0
2017-09-07T04:07:36.282Z,0
2017-09-07T04:08:45.125Z,0
2017-09-07T04:09:53.970Z,0
2017-09-07T04:11:02.815Z,0
2017-09-07T04:12:11.657Z,0
2017-09-07T04:13:20.701Z,0
2017-09-07T04:14:29.545Z,0
2017-09-07T04:15:38.391Z,0
2017-09-07T04:16:47.562Z,0
2017-09-07T04:17:56.405Z,0
2017-09-07T04:19:05.297Z,0
2017-09-07T04:20:14.140Z,0
2017-09-07T04:21:22.983Z,0
2017-09-07T04:22:31.837Z,0
2017-09-07T04:23:40.680Z,0
2017-09-07T04:24:49.673Z,0
2017-09-07T04:25:58.517Z,0
2017-09-07T04:27:07.361Z,0
2017-09-07T04:28:16.204Z,0
2017-09-07T04:29:25.050Z,0
2017-09-07T04:30:34.044Z,0
2017-09-07T04:31:42.889Z,0
2017-09-07T04:32:51.753Z,0
2017-09-07T04:34:00.595Z,0
2017-09-07T04:35:09.444Z,0
2017-09-07T04:36:18.342Z,0
2017-09-07T04:37:27.184Z,0
2017-09-07T04:38:36.031Z,0
2017-09-07T04:39:44.876Z,0
2017-09-07T04:40:53.721Z,0
2017-09-07T04:42:02.714Z,5
2017-09-07T04:43:11.560Z,5
2017-09-07T04:44:20.407Z,5
2017-09-07T04:45:29.251Z,5
2017-09-07T04:46:38.096Z,5
2017-09-07T04:47:47.091Z,5
2017-09-07T04:48:55.936Z,5
2017-09-07T04:50:04.780Z,10
2017-09-07T04:51:13.624Z,10
2017-09-07T04:52:22.468Z,10
2017-09-07T04:53:31.361Z,10
2017-09-07T04:54:40.205Z,15
2017-09-07T04:55:49.046Z,15
2017-09-07T04:56:57.891Z,15
2017-09-07T04:58:06.737Z,15
2017-09-07T04:59:15.630Z,15
2017-09-07T05:00:24.476Z,20
2017-09-07T05:01:33.345Z,20
2017-09-07T05:02:42.189Z,20
2017-09-07T05:03:51.039Z,25
2017-09-07T05:05:00.366Z,25
2017-09-07T05:06:09.214Z,25
2017-09-07T05:07:18.061Z,25
2017-09-07T05:08:26.905Z,30
2017-09-07T05:09:35.751Z,35
2017-09-07T05:10:44.649Z,35
2017-09-07T05:11:53.496Z,35
2017-09-07T05:13:02.344Z,40
2017-09-07T05:14:11.219Z,40
2017-09-07T05:15:20.064Z,45
2017-09-07T05:16:28.958Z,45
2017-09-07T05:17:37.804Z,45
2017-09-07T05:18:46.649Z,45
2017-09-07T05:19:55.495Z,45
2017-09-07T05:21:04.342Z,50
2017-09-07T05:22:13.341Z,50
2017-09-07T05:23:22.191Z,55
2017-09-07T05:24:31.040Z,60
2017-09-07T05:25:39.885Z,60
2017-09-07T05:26:48.730Z,60
2017-09-07T05:27:57.875Z,60
2017-09-07T05:29:06.721Z,60
2017-09-07T05:30:15.567Z,60
2017-09-07T05:31:24.409Z,65
2017-09-07T05:32:33.255Z,65
2017-09-07T05:33:42.251Z,65
2017-09-07T05:34:51.098Z,65
2017-09-07T05:35:59.943Z,70
2017-09-07T05:37:08.791Z,70
2017-09-07T05:38:17.640Z,70
2017-09-07T05:39:26.592Z,75
2017-09-07T05:40:35.770Z,75
2017-09-07T05:41:44.617Z,80
2017-09-07T05:42:53.463Z,80
2017-09-07T05:44:02.310Z,80
2017-09-07T05:45:11.255Z,80
2017-09-07T05:46:20.102Z,85
2017-09-07T05:47:28.950Z,85
2017-09-07T05:48:37.834Z,85
2017-09-07T05:49:46.642Z,90
2017-09-07T05:50:55.789Z,90
2017-09-07T05:52:04.634Z,90
2017-09-07T05:53:13.479Z,95
2017-09-07T05:54:22.325Z,95
2017-09-07T05:55:31.172Z,95
2017-09-07T05:56:40.167Z,95
2017-09-07T05:57:49.014Z,95
2017-09-07T05:58:57.858Z,95
2017-09-07T06:00:06.704Z,100
2017-09-07T06:01:15.553Z,100
2017-09-07T06:02:24.549Z,100
2017-09-07T06:03:33.392Z,105
2017-09-07T06:04:42.238Z,105
2017-09-07T06:05:51.087Z,100
2017-09-07T06:06:59.933Z,105
2017-09-07T06:08:08.830Z,110
2017-09-07T06:09:17.678Z,110
2017-09-07T06:10:26.866Z,110
2017-09-07T06:11:35.712Z,110
2017-09-07T06:12:44.558Z,115
2017-09-07T06:13:53.505Z,115
2017-09-07T06:15:02.354Z,115
2017-09-07T06:16:11.201Z,110
2017-09-07T06:17:20.045Z,105
2017-09-07T06:18:28.890Z,100
2017-09-07T06:19:37.787Z,90
2017-09-07T06:20:46.634Z,95
2017-09-07T06:21:55.479Z,95
2017-09-07T06:23:04.324Z,100
2017-09-07T06:24:13.172Z,105
2017-09-07T06:25:22.246Z,105
2017-09-07T06:26:31.093Z,105
2017-09-07T06:27:39.940Z,110
2017-09-07T06:28:48.786Z,110
2017-09-07T06:29:57.632Z,105
2017-09-07T06:31:06.627Z,110
2017-09-07T06:32:15.472Z,115
2017-09-07T06:33:24.324Z,115
2017-09-07T06:34:33.169Z,115
2017-09-07T06:35:42.016Z,130
2017-09-07T06:36:51.064Z,140
2017-09-07T06:37:59.909Z,150
2017-09-07T06:39:08.758Z,155
2017-09-07T06:40:17.605Z,145
2017-09-07T06:41:26.786Z,130
2017-09-07T06:42:35.885Z,125
2017-09-07T06:43:44.733Z,120
2017-09-07T06:44:53.586Z,110
2017-09-07T06:46:02.425Z,115
2017-09-07T06:47:11.270Z,140
2017-09-07T06:48:20.267Z,140
2017-09-07T06:49:29.114Z,145
2017-09-07T06:50:37.963Z,145
2017-09-07T06:51:46.809Z,145
2017-09-07T06:52:55.657Z,135
2017-09-07T06:54:04.654Z,135
2017-09-07T06:55:13.501Z,150
2017-09-07T06:56:22.350Z,165
2017-09-07T06:57:33.741Z,185
2017-09-07T06:58:42.589Z,195
2017-09-07T06:59:51.488Z,175
2017-09-07T07:01:00.333Z,170
2017-09-07T07:02:09.180Z,180
2017-09-07T07:03:18.027Z,170
2017-09-07T07:04:26.875Z,175
2017-09-07T07:05:36.123Z,150
2017-09-07T07:06:45.072Z,130
2017-09-07T07:07:53.920Z,140
2017-09-07T07:09:02.768Z,145
2017-09-07T07:10:11.617Z,145
2017-09-07T07:11:20.564Z,135
2017-09-07T07:12:29.407Z,125
2017-09-07T07:13:38.253Z,140
2017-09-07T07:14:47.099Z,150
2017-09-07T07:15:55.946Z,170
2017-09-07T07:17:04.942Z,185
2017-09-07T07:18:13.783Z,205
2017-09-07T07:19:22.628Z,220
2017-09-07T07:20:31.475Z,235
2017-09-07T07:21:40.316Z,240
2017-09-07T07:22:49.212Z,245
2017-09-07T07:23:58.054Z,245
2017-09-07T07:25:06.898Z,245
2017-09-07T07:26:15.741Z,245
2017-09-07T07:27:24.586Z,255
2017-09-07T07:28:33.482Z,265
2017-09-07T07:29:42.328Z,270
2017-09-07T07:30:51.171Z,250
2017-09-07T07:32:00.016Z,230
2017-09-07T07:33:08.860Z,220
2017-09-07T07:34:17.756Z,230
2017-09-07T07:35:26.599Z,260
2017-09-07T07:36:35.443Z,300
2017-09-07T07:37:44.295Z,305
2017-09-07T07:38:53.141Z,300
2017-09-07T07:40:02.184Z,290
2017-09-07T07:41:11.362Z,270
2017-09-07T07:42:20.206Z,250
2017-09-07T07:43:29.053Z,255
2017-09-07T07:44:37.899Z,290
2017-09-07T07:45:46.794Z,320
2017-09-07T07:46:55.639Z,340
2017-09-07T07:48:04.485Z,335
2017-09-07T07:49:13.328Z,325
2017-09-07T07:50:22.174Z,320
2017-09-07T07:51:31.402Z,320
2017-09-07T07:52:40.247Z,315
2017-09-07T07:53:49.095Z,305
2017-09-07T07:54:57.942Z,300
2017-09-07T07:56:07.115Z,300
2017-09-07T07:57:16.013Z,300
2017-09-07T07:58:24.909Z,310
2017-09-07T07:59:33.753Z,325
2017-09-07T08:00:42.599Z,350
2017-09-07T08:01:51.448Z,350
2017-09-07T08:03:00.345Z,345
2017-09-07T08:04:09.192Z,340
2017-09-07T08:05:18.038Z,325
2017-09-07T08:06:26.883Z,305
2017-09-07T08:07:35.729Z,290
2017-09-07T08:08:44.873Z,280
2017-09-07T08:09:53.718Z,275
2017-09-07T08:11:02.566Z,255
2017-09-07T08:12:11.411Z,235
2017-09-07T08:13:20.256Z,215
2017-09-07T08:14:29.254Z,205
2017-09-07T08:15:38.100Z,215
2017-09-07T08:16:46.947Z,230
2017-09-07T08:17:55.791Z,230
2017-09-07T08:19:04.637Z,245
2017-09-07T08:20:13.632Z,230
2017-09-07T08:21:22.478Z,235
2017-09-07T08:22:31.325Z,220
2017-09-07T08:23:40.171Z,220
2017-09-07T08:24:49.348Z,225
2017-09-07T08:25:58.495Z,230
2017-09-07T08:27:07.343Z,230
2017-09-07T08:28:16.189Z,240
2017-09-07T08:29:25.038Z,245
2017-09-07T08:30:33.886Z,250
2017-09-07T08:31:42.881Z,280
2017-09-07T08:32:51.725Z,320
2017-09-07T08:34:00.571Z,345
2017-09-07T08:35:09.414Z,355
2017-09-07T08:36:18.259Z,370
2017-09-07T08:37:27.255Z,380
2017-09-07T08:38:36.100Z,365
2017-09-07T08:39:44.943Z,365
2017-09-07T08:40:53.786Z,365
2017-09-07T08:42:02.635Z,360
2017-09-07T08:43:11.632Z,375
2017-09-07T08:44:20.474Z,350
2017-09-07T08:45:29.320Z,360
2017-09-07T08:46:38.165Z,350
2017-09-07T08:47:47.012Z,365
2017-09-07T08:48:55.991Z,405
2017-09-07T08:50:04.808Z,455
2017-09-07T08:51:13.654Z,490
2017-09-07T08:52:22.500Z,475
2017-09-07T08:53:31.346Z,440
2017-09-07T08:54:40.302Z,460
2017-09-07T08:55:49.146Z,445
2017-09-07T08:56:57.994Z,425
2017-09-07T08:58:06.840Z,420
2017-09-07T08:59:15.687Z,380
2017-09-07T09:00:24.583Z,350
2017-09-07T09:01:33.431Z,330
2017-09-07T09:02:42.610Z,305
2017-09-07T09:03:51.457Z,295
2017-09-07T09:05:00.302Z,325
2017-09-07T09:06:09.300Z,360
2017-09-07T09:07:18.480Z,390
2017-09-07T09:08:27.328Z,380
2017-09-07T09:09:36.173Z,405
2017-09-07T09:10:45.018Z,430
2017-09-07T09:11:53.967Z,425
2017-09-07T09:13:02.812Z,450
2017-09-07T09:14:11.659Z,460
2017-09-07T09:15:20.506Z,475
2017-09-07T09:16:29.359Z,505
2017-09-07T09:17:38.442Z,515
2017-09-07T09:18:47.255Z,520
2017-09-07T09:19:56.773Z,505
2017-09-07T09:21:05.620Z,485
2017-09-07T09:22:14.467Z,470
2017-09-07T09:23:23.463Z,475
2017-09-07T09:24:32.311Z,470
2017-09-07T09:25:41.156Z,485
2017-09-07T09:26:50.003Z,500
2017-09-07T09:27:58.847Z,495
2017-09-07T09:29:07.744Z,485
2017-09-07T09:30:16.593Z,480
2017-09-07T09:31:25.442Z,475
2017-09-07T09:32:34.292Z,465
2017-09-07T09:33:43.141Z,445
2017-09-07T09:34:52.187Z,415
2017-09-07T09:36:01.040Z,405
2017-09-07T09:37:09.881Z,390
2017-09-07T09:38:18.728Z,435
2017-09-07T09:39:27.576Z,460
2017-09-07T09:40:36.626Z,485
2017-09-07T09:41:45.477Z,520
2017-09-07T09:42:54.325Z,575
2017-09-07T09:44:03.171Z,540
2017-09-07T09:45:12.350Z,480
2017-09-07T09:46:21.349Z,420
2017-09-07T09:47:30.201Z,400
2017-09-07T09:48:39.049Z,415
2017-09-07T09:49:47.897Z,400
2017-09-07T09:50:56.744Z,355
2017-09-07T09:52:05.743Z,440
2017-09-07T09:53:14.591Z,450
2017-09-07T09:54:23.438Z,430
2017-09-07T09:55:32.286Z,475
2017-09-07T09:56:41.132Z,510
2017-09-07T09:57:49.975Z,515
2017-09-07T09:58:58.824Z,520
2017-09-07T10:00:08.341Z,540
2017-09-07T10:01:17.188Z,550
2017-09-07T10:02:26.033Z,550
2017-09-07T10:03:35.077Z,550
2017-09-07T10:04:43.925Z,555
2017-09-07T10:05:52.776Z,545
2017-09-07T10:07:01.625Z,520
2017-09-07T10:08:10.473Z,525
2017-09-07T10:09:19.420Z,530
2017-09-07T10:10:28.267Z,535
2017-09-07T10:11:37.114Z,485
2017-09-07T10:12:45.962Z,410
2017-09-07T10:13:54.810Z,375
2017-09-07T10:15:03.859Z,440
2017-09-07T10:16:12.706Z,395
2017-09-07T10:17:21.558Z,390
2017-09-07T10:18:30.406Z,385
2017-09-07T10:19:39.255Z,470
2017-09-07T10:20:48.206Z,425
2017-09-07T10:21:57.054Z,480
2017-09-07T10:23:06.228Z,465
2017-09-07T10:24:15.076Z,505
2017-09-07T10:25:23.925Z,485
2017-09-07T10:26:32.820Z,510
2017-09-07T10:27:41.668Z,580
2017-09-07T10:28:50.520Z,495
2017-09-07T10:29:59.366Z,305
2017-09-07T10:31:08.217Z,210
2017-09-07T10:32:17.167Z,165
2017-09-07T10:33:26.017Z,155
2017-09-07T10:34:34.867Z,145
2017-09-07T10:35:43.712Z,150
2017-09-07T10:36:52.562Z,150
2017-09-07T10:38:01.559Z,150
2017-09-07T10:39:10.408Z,160
2017-09-07T10:40:19.255Z,165
2017-09-07T10:41:28.443Z,165
2017-09-07T10:42:37.287Z,160
2017-09-07T10:43:46.387Z,155
2017-09-07T10:44:55.232Z,175
2017-09-07T10:46:04.079Z,190
2017-09-07T10:47:12.925Z,235
2017-09-07T10:48:21.774Z,275
2017-09-07T10:49:30.720Z,320
2017-09-07T10:50:39.566Z,370
2017-09-07T10:51:48.413Z,410
2017-09-07T10:52:57.258Z,445
2017-09-07T10:54:06.108Z,515
2017-09-07T10:55:15.106Z,585
2017-09-07T10:56:23.951Z,625
2017-09-07T10:57:32.800Z,660
2017-09-07T10:58:41.646Z,685
2017-09-07T10:59:50.498Z,720
2017-09-07T11:00:59.743Z,720
2017-09-07T11:02:08.927Z,725
2017-09-07T11:03:17.777Z,725
2017-09-07T11:04:26.627Z,725
2017-09-07T11:05:35.475Z,755
2017-09-07T11:06:44.957Z,795
2017-09-07T11:07:53.804Z,800
2017-09-07T11:09:02.651Z,790
2017-09-07T11:10:11.499Z,765
2017-09-07T11:11:20.345Z,740
2017-09-07T11:12:29.244Z,760
2017-09-07T11:13:38.097Z,725
2017-09-07T11:14:46.944Z,730
2017-09-07T11:15:55.793Z,730
2017-09-07T11:17:04.644Z,755
2017-09-07T11:18:13.790Z,765
2017-09-07T11:19:22.639Z,760
2017-09-07T11:20:31.490Z,725
2017-09-07T11:21:40.343Z,690
2017-09-07T11:22:49.193Z,675
2017-09-07T11:23:58.091Z,705
2017-09-07T11:25:06.942Z,735
2017-09-07T11:26:15.792Z,735
2017-09-07T11:27:24.647Z,740
2017-09-07T11:28:33.494Z,800
2017-09-07T11:29:42.393Z,785
2017-09-07T11:30:51.247Z,755
2017-09-07T11:32:00.427Z,705
2017-09-07T11:33:09.281Z,615
2017-09-07T11:34:18.471Z,495
2017-09-07T11:35:27.653Z,375
2017-09-07T11:36:36.503Z,345
2017-09-07T11:37:45.354Z,340
2017-09-07T11:38:54.203Z,260
2017-09-07T11:40:03.401Z,230
2017-09-07T11:41:12.249Z,250
2017-09-07T11:42:21.099Z,255
2017-09-07T11:43:29.947Z,265
2017-09-07T11:44:38.797Z,255
2017-09-07T11:45:47.645Z,240
2017-09-07T11:46:56.494Z,230
2017-09-07T11:48:05.342Z,225
2017-09-07T11:49:14.193Z,215
2017-09-07T11:50:23.043Z,220
2017-09-07T11:51:31.895Z,235
2017-09-07T11:52:40.744Z,245
2017-09-07T11:53:49.596Z,250
2017-09-07T11:54:58.445Z,255
2017-09-07T11:56:07.293Z,255
2017-09-07T11:57:16.144Z,265
2017-09-07T11:58:24.991Z,280
2017-09-07T11:59:33.962Z,310
2017-09-07T12:00:42.816Z,340
2017-09-07T12:01:51.661Z,350
2017-09-07T12:03:00.509Z,370
2017-09-07T12:04:09.359Z,390
2017-09-07T12:05:18.206Z,420
2017-09-07T12:06:27.056Z,440
2017-09-07T12:07:35.910Z,435
2017-09-07T12:08:44.757Z,445
2017-09-07T12:09:53.607Z,455
2017-09-07T12:11:02.455Z,450
2017-09-07T12:12:11.503Z,455
2017-09-07T12:13:20.353Z,455
2017-09-07T12:14:29.203Z,470
2017-09-07T12:15:38.053Z,485
2017-09-07T12:16:46.902Z,510
2017-09-07T12:17:56.250Z,520
2017-09-07T12:19:05.099Z,525
2017-09-07T12:20:14.282Z,530
2017-09-07T12:21:23.129Z,535
2017-09-07T12:22:31.978Z,545
2017-09-07T12:23:40.929Z,530
2017-09-07T12:24:49.779Z,515
2017-09-07T12:25:58.627Z,480
2017-09-07T12:27:07.475Z,465
2017-09-07T12:28:16.321Z,460
2017-09-07T12:29:25.802Z,445
2017-09-07T12:30:34.650Z,420
2017-09-07T12:31:43.496Z,410
2017-09-07T12:32:52.345Z,425
2017-09-07T12:34:01.191Z,445
2017-09-07T12:35:10.188Z,470
2017-09-07T12:36:19.038Z,490
2017-09-07T12:37:28.234Z,505
2017-09-07T12:38:37.412Z,535
2017-09-07T12:39:46.260Z,520
2017-09-07T12:40:55.111Z,540
2017-09-07T12:42:03.959Z,580
2017-09-07T12:43:12.809Z,625
2017-09-07T12:44:21.656Z,665
2017-09-07T12:45:30.503Z,675
2017-09-07T12:46:39.552Z,685
2017-09-07T12:47:48.401Z,725
2017-09-07T12:48:57.249Z,820
2017-09-07T12:50:06.429Z,825
2017-09-07T12:51:15.277Z,795
2017-09-07T12:52:24.377Z,735
2017-09-07T12:53:33.225Z,695
2017-09-07T12:54:42.073Z,665
2017-09-07T12:55:50.921Z,680
2017-09-07T12:56:59.770Z,635
2017-09-07T12:58:08.675Z,570
2017-09-07T12:59:17.523Z,535
2017-09-07T13:00:26.372Z,455
2017-09-07T13:01:35.221Z,395
2017-09-07T13:02:44.073Z,375
2017-09-07T13:03:53.071Z,385
2017-09-07T13:05:01.921Z,380
2017-09-07T13:06:10.771Z,365
2017-09-07T13:07:19.622Z,265
2017-09-07T13:08:28.471Z,190
2017-09-07T13:09:37.367Z,125
2017-09-07T13:10:46.214Z,95
2017-09-07T13:11:55.063Z,80
2017-09-07T13:13:03.912Z,75
2017-09-07T13:14:12.763Z,60
2017-09-07T13:15:21.763Z,45
2017-09-07T13:16:30.611Z,35
2017-09-07T13:17:39.457Z,35
2017-09-07T13:18:48.308Z,35
2017-09-07T13:19:57.155Z,35
2017-09-07T13:21:06.079Z,40
2017-09-07T13:22:15.257Z,45
2017-09-07T13:23:24.103Z,45
2017-09-07T13:24:32.954Z,55
2017-09-07T13:25:41.800Z,60
2017-09-07T13:26:50.798Z,60
2017-09-07T13:27:59.646Z,65
2017-09-07T13:29:08.496Z,70
2017-09-07T13:30:17.349Z,70
2017-09-07T13:31:26.526Z,65
2017-09-07T13:32:35.425Z,65
2017-09-07T13:33:44.274Z,70
2017-09-07T13:34:53.121Z,80
2017-09-07T13:36:01.969Z,100
2017-09-07T13:37:10.839Z,120
2017-09-07T13:38:20.088Z,140
2017-09-07T13:39:28.935Z,155
2017-09-07T13:40:37.795Z,170
2017-09-07T13:41:46.922Z,190
2017-09-07T13:42:55.777Z,205
2017-09-07T13:44:04.675Z,225
2017-09-07T13:45:13.525Z,250
2017-09-07T13:46:22.373Z,280
2017-09-07T13:47:31.217Z,310
2017-09-07T13:48:40.062Z,335
2017-09-07T13:49:49.208Z,355
2017-09-07T13:50:58.053Z,370
2017-09-07T13:52:06.901Z,395
2017-09-07T13:53:15.748Z,415
2017-09-07T13:54:24.590Z,455
2017-09-07T13:55:33.487Z,485
2017-09-07T13:56:42.335Z,520
2017-09-07T13:57:51.183Z,565
2017-09-07T13:59:00.028Z,610
2017-09-07T14:00:08.872Z,610
2017-09-07T14:01:17.722Z,615
2017-09-07T14:02:26.572Z,695
2017-09-07T14:03:35.420Z,1725
2017-09-07T14:04:44.279Z,795
2017-09-07T14:05:53.126Z,885
2017-09-07T14:07:02.020Z,730
2017-09-07T14:08:11.097Z,740
2017-09-07T14:09:20.227Z,915
2017-09-07T14:10:29.075Z,735
2017-09-07T14:11:37.924Z,715
2017-09-07T14:12:46.874Z,720
2017-09-07T14:13:55.727Z,745
2017-09-07T14:15:04.574Z,710
2017-09-07T14:16:13.429Z,670
2017-09-07T14:17:22.278Z,610
2017-09-07T14:18:31.234Z,570
2017-09-07T14:19:40.107Z,585
2017-09-07T14:20:48.967Z,650
2017-09-07T14:21:57.820Z,675
2017-09-07T14:23:06.675Z,645
2017-09-07T14:24:15.677Z,635
2017-09-07T14:25:24.523Z,585
2017-09-07T14:26:33.371Z,545
2017-09-07T14:27:42.232Z,525
2017-09-07T14:28:51.080Z,535
2017-09-07T14:30:00.080Z,530
2017-09-07T14:31:08.930Z,520
2017-09-07T14:32:17.776Z,560
2017-09-07T14:33:26.624Z,560
2017-09-07T14:34:35.472Z,535
2017-09-07T14:35:44.492Z,475
2017-09-07T14:36:53.341Z,420
2017-09-07T14:38:02.190Z,370
2017-09-07T14:39:11.063Z,320
2017-09-07T14:40:19.911Z,295
2017-09-07T14:41:28.811Z,280
2017-09-07T14:42:37.661Z,275
2017-09-07T14:43:46.514Z,280
2017-09-07T14:44:55.383Z,275
2017-09-07T14:46:04.244Z,265
2017-09-07T14:47:13.685Z,250
2017-09-07T14:48:22.543Z,255
2017-09-07T14:49:31.392Z,265
2017-09-07T14:50:40.243Z,265
2017-09-07T14:51:49.093Z,285
2017-09-07T14:52:58.241Z,305
2017-09-07T14:54:07.089Z,320
2017-09-07T14:55:16.296Z,340
2017-09-07T14:56:25.149Z,350
2017-09-07T14:57:34.000Z,340
2017-09-07T14:58:42.849Z,320
2017-09-07T14:59:51.697Z,305
2017-09-07T15:01:00.546Z,285
2017-09-07T15:02:09.396Z,250
2017-09-07T15:03:18.247Z,215
2017-09-07T15:04:27.148Z,170
2017-09-07T15:05:35.996Z,145
2017-09-07T15:06:44.847Z,135
2017-09-07T15:07:53.693Z,145
2017-09-07T15:09:02.872Z,175
2017-09-07T15:10:12.020Z,200
2017-09-07T15:11:21.209Z,220
2017-09-07T15:12:30.054Z,245
2017-09-07T15:13:38.901Z,990
2017-09-07T15:14:47.749Z,295
2017-09-07T15:15:57.082Z,355
2017-09-07T15:17:05.929Z,375
2017-09-07T15:18:14.776Z,395
2017-09-07T15:19:23.624Z,425
2017-09-07T15:20:32.475Z,460
2017-09-07T15:21:41.334Z,495
2017-09-07T15:22:50.523Z,630
2017-09-07T15:23:59.370Z,605
2017-09-07T15:25:08.220Z,590
2017-09-07T15:26:17.412Z,1885
2017-09-07T15:27:26.662Z,1810
2017-09-07T15:28:35.508Z,1415
2017-09-07T15:29:44.690Z,1700
2017-09-07T15:30:53.540Z,1655
2017-09-07T15:32:02.392Z,1155
2017-09-07T15:33:11.241Z,1670
2017-09-07T15:34:20.093Z,485
2017-09-07T15:35:28.953Z,450
2017-09-07T15:36:37.797Z,865
2017-09-07T15:37:46.649Z,595
2017-09-07T15:38:55.654Z,1080
2017-09-07T15:40:04.505Z,590
2017-09-07T15:41:13.358Z,1075
2017-09-07T15:42:22.210Z,1650
2017-09-07T15:43:31.395Z,1590
2017-09-07T15:44:40.403Z,1505
2017-09-07T15:45:49.590Z,905
2017-09-07T15:46:58.441Z,575
2017-09-07T15:48:07.293Z,980
2017-09-07T15:49:16.148Z,995
2017-09-07T15:50:25.149Z,1515
2017-09-07T15:51:34.001Z,1635
2017-09-07T15:52:42.853Z,1610
2017-09-07T15:53:51.706Z,1435
2017-09-07T15:55:00.559Z,660
2017-09-07T15:56:09.412Z,610
2017-09-07T15:57:18.265Z,885
2017-09-07T15:58:27.126Z,660
2017-09-07T15:59:35.966Z,410
2017-09-07T16:00:44.817Z,340
2017-09-07T16:01:53.719Z,285
2017-09-07T16:03:02.573Z,250
2017-09-07T16:04:11.423Z,225
2017-09-07T16:05:20.277Z,195
2017-09-07T16:06:29.129Z,175
2017-09-07T16:07:38.131Z,165
2017-09-07T16:08:46.983Z,145
2017-09-07T16:09:55.832Z,130
2017-09-07T16:11:04.686Z,110